Accueil
METAR-TAF:

METAR-TAF

Aéroports :

Aéroport d'Illizi - Takhamalt

Illizi, Algérie

latitude: 26-30N, longitude: 008-25E, altitude: 558 m

Observation

Le bulletin a été fait il y a 26 minutes, à 05:00 UTC
Vent 7 kt de sud-est
Température 32°C
Humidité 18%
Pression 1009 hPa
Visibilité 10 km ou plus
pas de nuages en-dessous de 1500 mètres et pas de cumulonimbus.

METAR: DAAP 100500Z 13007KT CAVOK 32/05 Q1009

Heure: 06:26 (05:26 UTC)

Prévision

Le bulletin a été fait il y a 3 heures et 26 minutes, à 02:00 UTC
Prévision valable du 10 à 03 UTC au 10 à 12 UTC
Vent 8 kt de est/sud-est
Visibilité 10 km ou plus
pas de nuages en-dessous de 1500 mètres et pas de cumulonimbus.
Probabilité 30% :
Temporairement
du 10 à 03 UTC au 10 à 06 UTC
Vent 15 kt de est/sud-est avec des rafales jusqu'à 25 kt
Visibilité: 3000 m
Chasse-sable basse

TAF: DAAP 100200Z 1003/1012 11008KT CAVOK PROB30 TEMPO 1003/1006 11015G25KT 3000 DRSA

Observations et prévisions météorologiques de plus de 4000 aéroports (messages METAR et TAF).

Les stations disponibles sont représentées par des disques jaunes et rouges sur la carte.

Passer la souris dessus pour voir le nom de la station.

Cliquer dessus pour voir les observations et prévisions météorologiques.

Pour changer de carte: cliquez sur les boutons verts avec une croix noire pour zoomer, sur le bouton vert avec un tiret pour effectuer un zoom arrière, ou sur les flèches vertes pour les cartes adjacentes.


METAR-TAF: